createdAt,value
2018-04-06T08:50:15.106Z,13.67
2018-04-06T08:52:42.592Z,9.83
2018-04-06T08:55:10.092Z,8.43
2018-04-06T08:57:37.605Z,10.30
2018-04-06T09:00:05.036Z,10.13
2018-04-06T09:02:33.241Z,10.30
2018-04-06T09:05:00.687Z,8.33
2018-04-06T09:07:28.137Z,7.83
2018-04-06T09:09:55.577Z,8.60
2018-04-06T09:12:23.005Z,7.17
2018-04-06T09:14:50.460Z,8.93
2018-04-06T09:17:17.888Z,7.90
2018-04-06T09:19:45.329Z,8.05
2018-04-06T09:22:12.761Z,7.37
2018-04-06T09:24:40.973Z,6.20
2018-04-06T09:27:08.409Z,9.50
2018-04-06T09:29:35.849Z,9.00
2018-04-06T09:32:04.396Z,7.75
2018-04-06T09:41:53.889Z,7.65
2018-04-06T09:46:49.097Z,6.50
2018-04-06T10:04:02.428Z,6.07
2018-04-06T10:06:29.878Z,8.00
2018-04-06T10:08:57.311Z,5.20
2018-04-06T10:11:24.743Z,7.10
2018-04-06T10:13:52.173Z,6.20
2018-04-06T10:16:19.664Z,6.87
2018-04-06T10:18:47.059Z,7.17
2018-04-06T10:21:14.513Z,5.40
2018-04-06T10:23:41.945Z,6.10
2018-04-06T10:26:09.386Z,7.05
2018-04-06T10:28:37.599Z,4.33
2018-04-06T10:31:05.048Z,5.65
2018-04-06T10:33:32.477Z,6.17
2018-04-06T10:36:00.684Z,6.43
2018-04-06T10:40:55.897Z,5.30
2018-04-06T10:43:23.329Z,9.63
2018-04-06T10:45:51.532Z,8.00
2018-04-06T10:48:18.964Z,5.83
2018-04-06T10:50:46.428Z,7.87
2018-04-06T11:05:30.440Z,5.73
2018-04-06T11:07:57.881Z,7.33
2018-04-06T11:10:26.087Z,8.10
2018-04-06T11:12:54.965Z,7.20
2018-04-06T11:20:17.989Z,9.40
2018-04-06T11:25:12.425Z,9.77
2018-04-06T11:54:39.283Z,6.70
2018-04-06T11:57:06.716Z,6.60
2018-04-06T11:59:34.140Z,7.40
2018-04-06T12:02:01.585Z,6.00
2018-04-06T12:04:29.013Z,10.57
2018-04-06T12:06:56.444Z,8.07
2018-04-06T12:09:23.880Z,8.43
2018-04-06T12:11:52.177Z,7.10
2018-04-06T12:14:19.753Z,8.40
2018-04-06T12:16:47.181Z,9.63
2018-04-06T12:19:14.621Z,8.77
2018-04-06T12:21:42.816Z,7.30
2018-04-06T12:24:10.257Z,12.13
2018-04-06T12:26:38.463Z,6.03
2018-04-06T12:29:05.905Z,7.60
2018-04-06T12:31:33.337Z,11.53
2018-04-06T12:34:01.549Z,10.63
2018-04-06T12:36:29.004Z,7.00
2018-04-06T12:38:56.453Z,10.30
2018-04-06T12:41:23.893Z,8.47
2018-04-06T12:43:51.341Z,9.23
2018-04-06T12:48:45.774Z,9.13
2018-04-06T12:51:13.207Z,7.60
2018-04-06T12:53:40.641Z,6.57
2018-04-06T12:56:08.852Z,6.80
2018-04-06T12:58:36.288Z,6.67
2018-04-06T13:01:04.472Z,6.90
2018-04-06T13:03:31.910Z,7.20
2018-04-06T13:06:00.117Z,9.17
2018-04-06T13:08:27.573Z,8.93
2018-04-06T13:10:55.008Z,7.83
2018-04-06T13:13:22.465Z,7.10
2018-04-06T13:15:49.892Z,8.97
2018-04-06T13:18:17.315Z,7.10
2018-04-06T13:20:44.764Z,9.47
2018-04-06T13:23:12.197Z,9.93
2018-04-06T13:25:39.650Z,10.70
2018-04-06T13:28:07.081Z,7.90
2018-04-06T13:30:35.288Z,7.13
2018-04-06T13:33:02.734Z,11.70
2018-04-06T13:35:30.195Z,10.60
2018-04-06T13:37:57.612Z,9.40
2018-04-06T13:40:25.057Z,10.47
2018-04-06T13:42:52.484Z,11.30
2018-04-06T13:45:19.928Z,8.10
2018-04-06T13:47:47.367Z,8.97
2018-04-06T13:50:14.800Z,8.77
2018-04-06T13:52:43.017Z,9.07
2018-04-06T13:55:10.473Z,10.07
2018-04-06T13:57:37.911Z,12.37
2018-04-06T14:00:05.352Z,13.93
2018-04-06T14:02:33.544Z,13.00
2018-04-06T14:05:00.987Z,10.03
2018-04-06T14:07:28.421Z,11.33
2018-04-06T14:09:55.852Z,9.77
2018-04-06T14:12:23.320Z,12.53
2018-04-06T14:14:50.794Z,8.87
2018-04-06T14:17:18.190Z,10.90
2018-04-06T14:19:45.646Z,11.37
2018-04-06T14:22:13.110Z,11.40
2018-04-06T14:24:40.553Z,9.13
2018-04-06T14:27:07.992Z,8.17
2018-04-06T14:29:35.417Z,7.77
2018-04-06T14:32:02.868Z,12.10
2018-04-06T14:34:30.301Z,8.57
2018-04-06T14:36:57.772Z,8.00
2018-04-06T14:39:25.203Z,9.43
2018-04-06T14:41:52.649Z,8.87
2018-04-06T14:44:20.084Z,9.20
2018-04-06T14:46:47.512Z,8.60
2018-04-06T14:49:14.948Z,11.20
2018-04-06T14:51:42.403Z,7.73
2018-04-06T14:54:09.829Z,8.17
2018-04-06T14:56:37.264Z,7.10
2018-04-06T14:59:04.754Z,7.53
2018-04-06T15:01:32.956Z,10.53
2018-04-06T15:04:00.388Z,8.97
2018-04-06T15:06:27.837Z,7.53
2018-04-06T15:08:55.285Z,8.20
2018-04-06T15:11:22.733Z,9.40
2018-04-06T15:13:50.157Z,8.33
2018-04-06T15:16:18.374Z,9.20
2018-04-06T15:18:45.818Z,12.60
2018-04-06T15:21:13.257Z,9.50
2018-04-06T15:23:40.697Z,9.60
2018-04-06T15:26:08.126Z,9.63
2018-04-06T15:28:35.556Z,10.60
2018-04-06T15:31:03.832Z,8.27
2018-04-06T15:33:31.283Z,7.80
2018-04-06T15:35:58.733Z,8.47
2018-04-06T15:38:26.184Z,8.27
2018-04-06T15:40:53.609Z,8.20
2018-04-06T15:43:21.831Z,8.83
2018-04-06T15:45:49.275Z,9.93
2018-04-06T15:48:16.731Z,9.70
2018-04-06T15:50:44.156Z,7.63
2018-04-06T15:53:12.376Z,10.33
2018-04-06T15:55:39.817Z,8.70
2018-04-06T15:58:07.276Z,9.43
2018-04-06T16:00:34.771Z,8.30
2018-04-06T16:03:02.186Z,9.10
2018-04-06T16:05:29.631Z,10.07
2018-04-06T16:07:57.073Z,9.33
2018-04-06T16:10:24.508Z,7.60
2018-04-06T16:12:51.949Z,8.00
2018-04-06T16:15:19.386Z,11.17
2018-04-06T16:17:47.673Z,8.77
2018-04-06T16:20:15.105Z,9.30
2018-04-06T16:22:42.555Z,7.60
2018-04-06T16:25:10.116Z,7.80
2018-04-06T16:27:37.587Z,9.47
2018-04-06T16:30:05.023Z,7.83
2018-04-06T16:32:32.481Z,8.97
2018-04-06T16:34:59.912Z,12.57
2018-04-06T16:37:27.344Z,9.10
2018-04-06T16:39:54.781Z,9.10
2018-04-06T16:42:22.235Z,10.77
2018-04-06T16:44:49.684Z,10.60
2018-04-06T16:47:17.133Z,9.50
2018-04-06T16:49:44.595Z,8.77
2018-04-06T16:52:12.025Z,10.30
2018-04-06T16:54:39.483Z,8.57
2018-04-06T16:57:06.925Z,10.77
2018-04-06T16:59:34.365Z,8.73
2018-04-06T17:02:02.568Z,11.30
2018-04-06T17:04:30.041Z,11.00
2018-04-06T17:06:57.473Z,9.47
2018-04-06T17:09:24.911Z,10.53
2018-04-06T17:11:52.348Z,10.27
2018-04-06T17:14:19.788Z,10.93
2018-04-06T17:16:47.241Z,10.27
2018-04-06T17:19:14.698Z,8.83
2018-04-06T17:21:42.140Z,10.63
2018-04-06T17:24:09.612Z,16.17
2018-04-06T17:26:37.063Z,10.17
2018-04-06T17:29:04.904Z,10.27
2018-04-06T17:31:32.357Z,10.60
2018-04-06T17:33:59.811Z,10.57
2018-04-06T17:36:27.267Z,11.63
2018-04-06T17:38:54.721Z,9.93
2018-04-06T17:41:22.167Z,12.10
2018-04-06T17:43:49.608Z,10.00
2018-04-06T17:46:17.051Z,8.80
2018-04-06T17:48:45.266Z,10.90
2018-04-06T17:51:12.719Z,12.20
2018-04-06T17:53:40.155Z,13.73
2018-04-06T17:56:07.604Z,10.93
2018-04-06T17:58:35.053Z,12.43
2018-04-06T18:01:03.410Z,10.57
2018-04-06T18:03:30.844Z,11.90
2018-04-06T18:05:58.304Z,12.37
2018-04-06T18:08:25.742Z,11.57
2018-04-06T18:10:53.181Z,10.97
2018-04-06T18:13:20.647Z,13.87
2018-04-06T18:15:48.104Z,11.17
2018-04-06T18:18:15.541Z,11.10
2018-04-06T18:20:42.976Z,11.80
2018-04-06T18:23:11.191Z,11.10
2018-04-06T18:25:38.644Z,11.73
2018-04-06T18:28:06.104Z,10.67
2018-04-06T18:30:33.563Z,12.00
2018-04-06T18:33:01.427Z,14.63
2018-04-06T18:35:28.882Z,16.23
2018-04-06T18:37:58.211Z,14.20
2018-04-06T18:40:25.889Z,12.40
2018-04-06T18:42:53.353Z,13.80
2018-04-06T18:45:21.629Z,14.33
2018-04-06T18:47:49.446Z,14.93
2018-04-06T18:50:20.943Z,10.63
2018-04-06T18:52:49.219Z,12.90
2018-04-06T18:55:17.432Z,11.73
2018-04-06T18:57:44.889Z,13.30
2018-04-06T19:02:50.381Z,9.90
2018-04-06T19:07:51.459Z,11.87
2018-04-06T19:10:20.834Z,11.00
2018-04-06T19:15:21.997Z,10.50
2018-04-06T19:33:36.675Z,11.33
2018-04-06T19:36:04.133Z,9.77
2018-04-06T19:38:31.575Z,13.10
2018-04-06T19:40:59.016Z,12.50
2018-04-06T19:52:50.017Z,11.07
2018-04-06T19:55:19.127Z,10.63
2018-04-06T19:57:47.416Z,14.53
2018-04-06T20:17:02.724Z,12.33
